Saglek Bay, Canada
Current Conditions -  °F | °C
As of 10:00 AM on Thursday 23 Oct 2014 (Local Time) from CYDP Reporting Station
Broken Clouds Broken Clouds  
Wind Chill: 29°   Ceiling: 23000
Heat Index: 39°   Visibility: 15mi
Dew Point: 27°   Wind: 22mph
Humidity: 61%   Direction: 280°W
Pressure: 29.99"   Gusts: 30mph
Location:  58.49°N, 62.59°W
Report Text: CYDP 231300Z 28019G26KT 15SM FEW100 BKN230 04/M03 A2999 RMKAC1CI3 SLP155
Loading
Personal Weather Stations






























Interactive Weather Map
Tropical Storm Tracking
New forecast layout! Learn more

10-Day Weather Forecast

Advertisements
Track Severe Weather on mobile